Terminal Aerodrome Forecast
Issued by NWS

Home | Current Version | Previous Version | Text Only | Print | Product List | Glossary On
Versions: 1 2 3 4 5 6 7 8 9 10 11 12 13 14 15 16 17 18 19
000
FTUS41 KBOX 291132
TAFACK
TAF
KACK 291132Z 2912/3012 16004KT 3SM -SHRA BR SCT002 OVC020
     FM291400 12007KT 2SM +SHRA BR VCTS OVC003CB
     FM291800 06011G20KT 5SM -SHRA BR OVC008
     FM292000 05010G20KT 5SM -SHRA BKN003
     FM300000 03010G19KT P6SM VCSH BKN003
     FM300300 01009KT P6SM VCSH BKN040
     FM300600 36008KT P6SM BKN250=

USA.gov is the U.S. government's official web portal to all federal, state and local government web resources and services.